createdAt,value
2022-09-16T00:00:20.604Z,101172.56
2022-09-16T00:02:47.852Z,101176.91
2022-09-16T00:05:14.486Z,101175.69
2022-09-16T00:07:40.850Z,101187.69
2022-09-16T00:10:07.933Z,101179.06
2022-09-16T00:12:34.338Z,101176.28
2022-09-16T00:15:00.840Z,101179.63
2022-09-16T00:17:28.476Z,101176.47
2022-09-16T00:19:54.831Z,101177.19
2022-09-16T00:22:21.557Z,101168.63
2022-09-16T00:24:49.106Z,101173.63
2022-09-16T00:27:15.557Z,101162.34
2022-09-16T00:29:42.165Z,101168.91
2022-09-16T00:32:08.610Z,101168.91
2022-09-16T00:34:35.122Z,101171.63
2022-09-16T00:37:03.291Z,101167.66
2022-09-16T00:39:30.591Z,101171.19
2022-09-16T00:41:56.987Z,101169.69
2022-09-16T00:44:57.708Z,101175.91
2022-09-16T00:47:31.185Z,101175.09
2022-09-16T00:50:13.838Z,101166.81
2022-09-16T00:52:41.480Z,101164.03
2022-09-16T00:55:11.868Z,101158.38
2022-09-16T00:57:40.321Z,101164.25
2022-09-16T01:00:10.796Z,101164.16
2022-09-16T01:02:37.423Z,101162.94
2022-09-16T01:05:12.407Z,101168.09
2022-09-16T01:07:47.385Z,101159.59
2022-09-16T01:10:17.712Z,101161.59
2022-09-16T01:12:48.119Z,101151.50
2022-09-16T01:15:18.231Z,101161.59
2022-09-16T01:18:12.626Z,101165.91
2022-09-16T01:21:00.035Z,101163.59
2022-09-16T01:23:53.809Z,101168.34
2022-09-16T01:26:58.303Z,101165.34
2022-09-16T01:29:33.827Z,101170.78
2022-09-16T01:32:12.960Z,101165.41
2022-09-16T01:34:58.308Z,101163.81
2022-09-16T01:37:51.106Z,101160.75
2022-09-16T01:40:29.258Z,101163.47
2022-09-16T01:43:09.920Z,101165.34
2022-09-16T01:46:07.518Z,101151.16
2022-09-16T01:48:58.547Z,101161.09
2022-09-16T01:52:00.927Z,101159.00
2022-09-16T01:54:37.280Z,101168.91
2022-09-16T01:57:17.751Z,101172.28
2022-09-16T01:59:59.480Z,101162.91
2022-09-16T02:02:44.059Z,101172.47
2022-09-16T02:05:16.438Z,101167.47
2022-09-16T02:07:50.931Z,101167.38
2022-09-16T02:10:26.230Z,101174.28
2022-09-16T02:12:55.919Z,101171.22
2022-09-16T02:15:25.156Z,101180.50
2022-09-16T02:17:59.772Z,101171.94
2022-09-16T02:20:30.637Z,101173.41
2022-09-16T02:23:06.927Z,101170.38
2022-09-16T02:25:38.221Z,101161.88
2022-09-16T02:28:12.983Z,101159.94
2022-09-16T02:30:44.060Z,101160.28
2022-09-16T02:33:13.443Z,101165.38
2022-09-16T02:35:41.434Z,101161.97
2022-09-16T02:38:14.820Z,101165.09
2022-09-16T02:40:51.212Z,101165.53
2022-09-16T02:43:17.970Z,101163.25
2022-09-16T02:46:08.547Z,101152.03
2022-09-16T02:48:43.222Z,101157.03
2022-09-16T02:51:18.333Z,101163.59
2022-09-16T02:54:05.065Z,101170.19
2022-09-16T02:56:35.755Z,101180.69
2022-09-16T02:59:05.828Z,101182.25
2022-09-16T03:01:36.859Z,101183.47
2022-09-16T03:04:04.445Z,101189.75
2022-09-16T03:06:36.143Z,101185.56
2022-09-16T03:09:06.754Z,101180.66
2022-09-16T03:11:59.844Z,101170.13
2022-09-16T03:15:03.914Z,101161.94
2022-09-16T03:18:04.460Z,101162.63
2022-09-16T03:20:51.646Z,101159.06
2022-09-16T03:23:54.759Z,101155.47
2022-09-16T03:26:52.273Z,101156.88
2022-09-16T03:29:27.995Z,101155.88
2022-09-16T03:32:06.624Z,101165.53
2022-09-16T03:34:48.596Z,101188.53
2022-09-16T03:37:19.151Z,101187.50
2022-09-16T03:39:55.584Z,101189.88
2022-09-16T03:42:22.644Z,101179.94
2022-09-16T03:44:49.093Z,101173.31
2022-09-16T03:47:16.789Z,101177.34
2022-09-16T03:49:43.463Z,101175.06
2022-09-16T03:52:10.700Z,101168.50
2022-09-16T03:54:38.080Z,101159.59
2022-09-16T03:57:05.642Z,101153.81
2022-09-16T03:59:32.522Z,101151.38
2022-09-16T04:01:58.980Z,101147.06
2022-09-16T04:04:25.608Z,101148.66
2022-09-16T04:06:52.175Z,101148.66
2022-09-16T04:09:18.542Z,101145.13
2022-09-16T04:11:45.191Z,101142.31
2022-09-16T04:14:12.083Z,101149.59
2022-09-16T04:16:41.769Z,101149.19
2022-09-16T04:19:13.418Z,101145.22
2022-09-16T04:21:40.473Z,101151.47
2022-09-16T04:24:13.651Z,101151.81
2022-09-16T04:26:41.321Z,101153.63
2022-09-16T04:29:08.107Z,101144.28
2022-09-16T04:31:34.657Z,101148.13
2022-09-16T04:34:12.746Z,101153.13
2022-09-16T04:36:39.820Z,101150.13
2022-09-16T04:39:06.836Z,101147.84
2022-09-16T04:41:33.416Z,101152.50
2022-09-16T04:44:01.105Z,101156.69
2022-09-16T04:46:32.564Z,101154.31
2022-09-16T04:49:00.142Z,101150.41
2022-09-16T04:51:28.422Z,101152.25
2022-09-16T04:53:56.928Z,101139.75
2022-09-16T04:56:25.996Z,101145.84
2022-09-16T04:58:56.233Z,101148.13
2022-09-16T05:01:28.328Z,101149.19
2022-09-16T05:04:00.306Z,101145.59
2022-09-16T05:06:32.364Z,101147.06
2022-09-16T05:09:00.966Z,101141.56
2022-09-16T05:11:29.452Z,101149.97
2022-09-16T05:13:59.342Z,101142.97
2022-09-16T05:16:26.225Z,101140.63
2022-09-16T05:18:55.195Z,101148.31
2022-09-16T05:21:23.930Z,101141.31
2022-09-16T05:23:51.147Z,101145.50
2022-09-16T05:26:23.479Z,101145.59
2022-09-16T05:28:53.416Z,101139.56
2022-09-16T05:31:23.019Z,101147.44
2022-09-16T05:34:01.024Z,101156.19
2022-09-16T05:36:29.996Z,101159.41
2022-09-16T05:39:21.602Z,101168.53
2022-09-16T05:41:43.823Z,101165.16
2022-09-16T05:44:10.272Z,101177.00
2022-09-16T05:46:37.127Z,101161.41
2022-09-16T05:49:04.236Z,101159.41
2022-09-16T05:51:31.386Z,101173.94
2022-09-16T05:53:59.954Z,101176.72
2022-09-16T05:56:30.031Z,101174.44
2022-09-16T05:58:58.714Z,101176.28
2022-09-16T06:01:31.204Z,101170.88
2022-09-16T06:03:58.456Z,101163.88
2022-09-16T06:06:26.312Z,101171.22
2022-09-16T06:08:55.114Z,101178.56
2022-09-16T06:11:22.517Z,101177.06
2022-09-16T06:13:57.052Z,101175.22
2022-09-16T06:16:28.598Z,101176.13
2022-09-16T06:18:57.306Z,101187.59
2022-09-16T06:21:24.284Z,101175.25
2022-09-16T06:23:50.925Z,101181.09
2022-09-16T06:26:23.129Z,101184.59
2022-09-16T06:28:51.094Z,101176.19
2022-09-16T06:31:25.537Z,101176.06
2022-09-16T06:33:53.196Z,101183.47
2022-09-16T06:36:22.308Z,101195.91
2022-09-16T06:38:49.571Z,101189.28
2022-09-16T06:41:17.523Z,101191.31
2022-09-16T06:43:44.518Z,101204.69
2022-09-16T06:46:16.670Z,101189.09
2022-09-16T06:48:45.707Z,101183.31
2022-09-16T06:51:15.904Z,101191.06
2022-09-16T06:53:43.430Z,101184.47
2022-09-16T06:56:12.623Z,101181.13
2022-09-16T06:58:52.344Z,101177.50
2022-09-16T07:01:21.596Z,101183.22
2022-09-16T07:03:50.041Z,101183.88
2022-09-16T07:06:17.884Z,101185.66
2022-09-16T07:08:45.004Z,101185.00
2022-09-16T07:11:15.658Z,101175.50
2022-09-16T07:13:43.435Z,101191.16
2022-09-16T07:16:13.776Z,101188.34
2022-09-16T07:18:41.717Z,101195.94
2022-09-16T07:21:15.176Z,101185.56
2022-09-16T07:23:43.019Z,101180.38
2022-09-16T07:26:15.736Z,101183.78
2022-09-16T07:28:44.212Z,101184.59
2022-09-16T07:31:12.633Z,101178.44
2022-09-16T07:33:41.958Z,101184.69
2022-09-16T07:36:10.950Z,101177.72
2022-09-16T07:38:37.693Z,101175.53
2022-09-16T07:41:18.425Z,101172.50
2022-09-16T07:43:45.799Z,101178.97
2022-09-16T07:46:14.258Z,101171.59
2022-09-16T07:48:40.861Z,101181.00
2022-09-16T07:51:19.293Z,101183.66
2022-09-16T07:53:47.127Z,101183.50
2022-09-16T07:56:18.966Z,101185.91
2022-09-16T07:58:46.752Z,101207.78
2022-09-16T08:01:15.291Z,101214.97
2022-09-16T08:03:43.428Z,101226.75
2022-09-16T08:06:15.313Z,101219.22
2022-09-16T08:08:42.715Z,101229.81
2022-09-16T08:11:09.675Z,101226.91
2022-09-16T08:13:37.567Z,101238.28
2022-09-16T08:16:07.156Z,101237.78
2022-09-16T08:18:34.337Z,101225.47
2022-09-16T08:21:11.853Z,101222.44
2022-09-16T08:23:38.780Z,101216.53
2022-09-16T08:26:08.639Z,101217.50
2022-09-16T08:28:45.223Z,101231.28
2022-09-16T08:31:18.718Z,101236.34
2022-09-16T08:33:45.995Z,101229.16
2022-09-16T08:36:18.037Z,101237.09
2022-09-16T08:38:45.022Z,101238.72
2022-09-16T08:41:36.170Z,101241.94
2022-09-16T08:44:28.627Z,101232.38
2022-09-16T08:46:59.513Z,101229.84
2022-09-16T08:49:37.224Z,101230.69
2022-09-16T08:52:23.524Z,101224.81
2022-09-16T08:54:54.651Z,101230.41
2022-09-16T08:57:24.593Z,101232.53
2022-09-16T09:00:20.624Z,101223.31
2022-09-16T09:02:55.953Z,101228.84
2022-09-16T09:05:40.471Z,101233.03
2022-09-16T09:08:21.608Z,101231.75
2022-09-16T09:10:57.309Z,101232.91
2022-09-16T09:13:42.023Z,101242.66
2022-09-16T09:16:20.521Z,101242.97
2022-09-16T09:19:00.575Z,101246.41
2022-09-16T09:22:02.811Z,101249.19
2022-09-16T09:25:02.923Z,101256.91
2022-09-16T09:27:54.632Z,101263.09
2022-09-16T09:30:24.019Z,101264.72
2022-09-16T09:33:41.283Z,101251.41
2022-09-16T09:36:20.058Z,101254.25
2022-09-16T09:39:11.556Z,101241.56
2022-09-16T09:41:46.678Z,101242.16
2022-09-16T09:44:28.222Z,101242.59
2022-09-16T09:47:00.875Z,101240.00
2022-09-16T09:49:37.812Z,101242.22
2022-09-16T09:52:39.776Z,101240.63
2022-09-16T09:55:16.322Z,101234.78
2022-09-16T09:58:05.504Z,101229.84
2022-09-16T10:00:32.728Z,101228.41
2022-09-16T10:03:06.792Z,101230.25
2022-09-16T10:05:35.896Z,101240.88
2022-09-16T10:08:07.252Z,101239.22
2022-09-16T10:10:35.369Z,101239.88
2022-09-16T10:13:13.119Z,101243.97
2022-09-16T10:15:40.088Z,101250.59
2022-09-16T10:18:29.820Z,101252.31
2022-09-16T10:21:01.924Z,101252.16
2022-09-16T10:23:30.253Z,101260.44
2022-09-16T10:26:25.796Z,101273.44
2022-09-16T10:29:02.791Z,101266.22
2022-09-16T10:31:38.239Z,101267.56
2022-09-16T10:34:13.393Z,101268.44
2022-09-16T10:36:40.009Z,101269.25
2022-09-16T10:39:06.632Z,101275.53
2022-09-16T10:41:47.687Z,101268.47
2022-09-16T10:44:28.391Z,101269.16
2022-09-16T10:46:58.724Z,101265.22
2022-09-16T10:49:33.228Z,101266.81
2022-09-16T10:52:22.402Z,101265.72
2022-09-16T10:54:49.842Z,101258.69
2022-09-16T10:57:31.362Z,101252.06
2022-09-16T11:00:14.377Z,101251.25
2022-09-16T11:03:08.656Z,101251.28
2022-09-16T11:06:03.244Z,101254.03
2022-09-16T11:08:49.206Z,101248.91
2022-09-16T11:11:45.644Z,101258.44
2022-09-16T11:14:34.004Z,101248.72
2022-09-16T11:17:12.328Z,101251.19
2022-09-16T11:20:03.412Z,101250.41
2022-09-16T11:23:23.726Z,101252.63
2022-09-16T11:26:27.345Z,101251.03
2022-09-16T11:28:59.715Z,101250.63
2022-09-16T11:31:35.000Z,101243.25
2022-09-16T11:34:05.872Z,101253.19
2022-09-16T11:36:55.467Z,101257.53
2022-09-16T11:39:31.896Z,101261.97
2022-09-16T11:42:27.472Z,101271.81
2022-09-16T11:45:18.647Z,101284.44
2022-09-16T11:47:50.721Z,101272.41
2022-09-16T11:50:42.211Z,101255.19
2022-09-16T11:53:37.878Z,101248.09
2022-09-16T11:56:20.804Z,101234.63
2022-09-16T11:59:30.396Z,101238.22
2022-09-16T12:02:13.891Z,101242.59
2022-09-16T12:04:46.615Z,101247.75
2022-09-16T12:07:25.042Z,101237.63
2022-09-16T12:10:23.599Z,101240.34
2022-09-16T12:12:57.321Z,101237.59
2022-09-16T12:15:46.400Z,101236.38
2022-09-16T12:18:27.608Z,101240.56
2022-09-16T12:21:03.093Z,101239.72
2022-09-16T12:23:34.805Z,101238.94
2022-09-16T12:26:09.640Z,101235.75
2022-09-16T12:28:42.884Z,101239.28
2022-09-16T12:31:23.925Z,101243.13
2022-09-16T12:34:11.149Z,101245.81
2022-09-16T12:36:43.562Z,101261.66
2022-09-16T12:39:12.577Z,101271.44
2022-09-16T12:42:16.672Z,101300.81
2022-09-16T12:44:56.999Z,101277.75
2022-09-16T12:48:00.318Z,101270.81
2022-09-16T12:50:50.923Z,101273.22
2022-09-16T12:53:42.585Z,101267.31
2022-09-16T12:56:42.359Z,101260.69
2022-09-16T12:59:27.255Z,101263.81
2022-09-16T13:02:03.499Z,101260.66
2022-09-16T13:04:52.867Z,101251.28
2022-09-16T13:07:24.488Z,101247.72
2022-09-16T13:10:01.642Z,101249.63
2022-09-16T13:12:39.643Z,101239.03
2022-09-16T13:15:25.364Z,101236.97
2022-09-16T13:17:53.230Z,101239.75
2022-09-16T13:20:39.471Z,101226.19
2022-09-16T13:23:18.268Z,101223.47
2022-09-16T13:25:58.479Z,101227.03
2022-09-16T13:28:38.639Z,101227.44
2022-09-16T13:31:10.861Z,101233.31
2022-09-16T13:33:38.698Z,101235.66
2022-09-16T13:36:29.836Z,101224.69
2022-09-16T13:38:59.775Z,101214.91
2022-09-16T13:41:47.782Z,101213.34
2022-09-16T13:44:39.175Z,101218.81
2022-09-16T13:47:11.524Z,101218.41
2022-09-16T13:49:57.197Z,101216.78
2022-09-16T13:52:31.977Z,101211.22
2022-09-16T13:55:11.078Z,101215.13
2022-09-16T13:58:13.389Z,101212.06
2022-09-16T14:00:54.973Z,101205.44
2022-09-16T14:03:41.327Z,101204.72
2022-09-16T14:06:41.420Z,101205.91
2022-09-16T14:09:19.699Z,101214.50
2022-09-16T14:11:49.769Z,101221.91
2022-09-16T14:14:45.808Z,101221.13
2022-09-16T14:17:16.165Z,101218.31
2022-09-16T14:19:46.549Z,101214.44
2022-09-16T14:22:19.969Z,101220.66
2022-09-16T14:24:50.258Z,101216.34
2022-09-16T14:27:29.322Z,101228.56
2022-09-16T14:29:58.160Z,101221.16
2022-09-16T14:32:26.984Z,101230.97
2022-09-16T14:34:56.814Z,101223.91
2022-09-16T14:37:26.341Z,101221.56
2022-09-16T14:39:55.454Z,101216.88
2022-09-16T14:42:23.328Z,101217.22
2022-09-16T14:44:55.008Z,101219.94
2022-09-16T14:47:39.667Z,101211.25
2022-09-16T14:50:15.928Z,101217.88
2022-09-16T14:52:53.655Z,101212.03
2022-09-16T14:55:30.325Z,101206.91
2022-09-16T14:58:00.075Z,101204.97
2022-09-16T15:00:39.935Z,101208.16
2022-09-16T15:03:42.828Z,101215.66
2022-09-16T15:06:15.339Z,101200.41
2022-09-16T15:08:48.434Z,101206.72
2022-09-16T15:11:46.001Z,101192.63
2022-09-16T15:14:07.900Z,101195.72
2022-09-16T15:16:44.009Z,101192.63
2022-09-16T15:19:21.498Z,101202.38
2022-09-16T15:21:48.811Z,101201.63
2022-09-16T15:24:20.038Z,101209.84
2022-09-16T15:26:47.944Z,101200.81
2022-09-16T15:29:23.283Z,101205.88
2022-09-16T15:31:50.940Z,101212.94
2022-09-16T15:34:23.240Z,101209.03
2022-09-16T15:36:52.480Z,101200.03
2022-09-16T15:39:26.214Z,101195.75
2022-09-16T15:42:20.866Z,101202.41
2022-09-16T15:44:50.163Z,101209.00
2022-09-16T15:47:24.598Z,101199.94
2022-09-16T15:50:00.177Z,101220.94
2022-09-16T15:52:26.810Z,101222.06
2022-09-16T15:54:59.431Z,101228.22
2022-09-16T15:57:36.208Z,101230.13
2022-09-16T16:00:16.157Z,101219.22
2022-09-16T16:02:51.997Z,101219.31
2022-09-16T16:05:21.768Z,101217.41
2022-09-16T16:07:54.642Z,101208.00
2022-09-16T16:10:31.134Z,101211.56
2022-09-16T16:13:00.112Z,101220.56
2022-09-16T16:15:39.125Z,101218.56
2022-09-16T16:18:08.786Z,101220.53
2022-09-16T16:20:38.013Z,101222.88
2022-09-16T16:23:04.545Z,101218.63
2022-09-16T16:25:43.389Z,101217.84
2022-09-16T16:28:09.733Z,101224.50
2022-09-16T16:30:40.433Z,101235.44
2022-09-16T16:33:07.750Z,101233.06
2022-09-16T16:35:34.415Z,101221.69
2022-09-16T16:38:00.780Z,101225.56
2022-09-16T16:40:27.385Z,101233.72
2022-09-16T16:42:53.916Z,101235.22
2022-09-16T16:45:21.075Z,101237.91
2022-09-16T16:47:47.692Z,101227.22
2022-09-16T16:50:14.870Z,101234.16
2022-09-16T16:52:41.398Z,101232.50
2022-09-16T16:55:08.169Z,101237.81
2022-09-16T16:57:34.557Z,101233.81
2022-09-16T17:00:01.215Z,101238.34
2022-09-16T17:02:27.615Z,101239.75
2022-09-16T17:04:54.019Z,101242.03
2022-09-16T17:07:28.223Z,101231.06
2022-09-16T17:09:57.546Z,101229.44
2022-09-16T17:12:24.175Z,101239.09
2022-09-16T17:14:50.551Z,101233.97
2022-09-16T17:17:17.157Z,101232.66
2022-09-16T17:19:43.939Z,101230.97
2022-09-16T17:22:19.019Z,101240.16
2022-09-16T17:25:08.270Z,101241.19
2022-09-16T17:27:49.390Z,101246.88
2022-09-16T17:30:31.071Z,101251.84
2022-09-16T17:33:00.226Z,101254.81
2022-09-16T17:35:29.058Z,101260.53
2022-09-16T17:37:55.579Z,101263.44
2022-09-16T17:40:22.036Z,101266.06
2022-09-16T17:42:52.111Z,101268.25
2022-09-16T17:45:21.882Z,101266.56
2022-09-16T17:47:50.674Z,101273.06
2022-09-16T17:50:22.735Z,101270.72
2022-09-16T17:52:49.555Z,101276.09
2022-09-16T17:55:16.388Z,101275.25
2022-09-16T17:57:42.968Z,101278.22
2022-09-16T18:00:10.382Z,101275.78
2022-09-16T18:02:36.789Z,101286.09
2022-09-16T18:05:08.889Z,101280.88
2022-09-16T18:08:29.462Z,101281.53
2022-09-16T18:10:30.816Z,101285.31
2022-09-16T18:13:00.660Z,101281.66
2022-09-16T18:15:28.178Z,101279.16
2022-09-16T18:18:00.019Z,101281.38
2022-09-16T18:20:28.713Z,101281.28
2022-09-16T18:23:00.295Z,101288.16
2022-09-16T18:25:26.816Z,101300.44
2022-09-16T18:27:53.165Z,101300.38
2022-09-16T18:30:19.699Z,101310.34
2022-09-16T18:32:47.359Z,101307.56
2022-09-16T18:35:13.946Z,101297.44
2022-09-16T18:37:40.284Z,101300.56
2022-09-16T18:40:07.565Z,101311.09
2022-09-16T18:42:41.440Z,101315.00
2022-09-16T18:45:08.349Z,101310.34
2022-09-16T18:47:34.832Z,101313.59
2022-09-16T18:50:01.412Z,101314.03
2022-09-16T18:52:27.777Z,101315.09
2022-09-16T18:54:54.212Z,101315.09
2022-09-16T18:57:23.189Z,101324.75
2022-09-16T18:59:49.540Z,101321.59
2022-09-16T19:02:15.942Z,101322.38
2022-09-16T19:04:43.135Z,101324.75
2022-09-16T19:07:12.849Z,101328.78
2022-09-16T19:09:40.139Z,101323.28
2022-09-16T19:12:11.126Z,101325.56
2022-09-16T19:14:47.255Z,101323.81
2022-09-16T19:17:27.862Z,101321.47
2022-09-16T19:20:08.437Z,101330.31
2022-09-16T19:22:38.937Z,101327.25
2022-09-16T19:25:05.716Z,101327.25
2022-09-16T19:27:32.653Z,101332.66
2022-09-16T19:29:59.091Z,101334.25
2022-09-16T19:32:25.838Z,101333.81
2022-09-16T19:34:52.472Z,101336.53
2022-09-16T19:37:20.055Z,101342.31
2022-09-16T19:39:48.146Z,101335.66
2022-09-16T19:42:14.596Z,101331.72
2022-09-16T19:44:41.157Z,101347.94
2022-09-16T19:47:07.540Z,101343.97
2022-09-16T19:49:33.977Z,101356.00
2022-09-16T19:52:00.358Z,101351.25
2022-09-16T19:54:26.731Z,101357.81
2022-09-16T19:56:53.303Z,101355.00
2022-09-16T19:59:20.449Z,101356.19
2022-09-16T20:01:47.829Z,101357.72
2022-09-16T20:04:19.163Z,101361.25
2022-09-16T20:06:45.755Z,101360.44
2022-09-16T20:09:12.995Z,101364.41
2022-09-16T20:11:45.754Z,101364.50
2022-09-16T20:14:19.897Z,101368.75
2022-09-16T20:16:47.289Z,101359.56
2022-09-16T20:19:15.778Z,101355.38
2022-09-16T20:21:42.757Z,101362.38
2022-09-16T20:24:14.807Z,101354.22
2022-09-16T20:26:41.492Z,101352.66
2022-09-16T20:29:07.869Z,101348.38
2022-09-16T20:31:36.234Z,101355.38
2022-09-16T20:34:04.399Z,101349.06
2022-09-16T20:36:36.979Z,101348.38
2022-09-16T20:39:04.616Z,101354.56
2022-09-16T20:41:32.957Z,101343.63
2022-09-16T20:44:00.202Z,101348.28
2022-09-16T20:46:31.736Z,101357.91
2022-09-16T20:49:01.748Z,101353.97
2022-09-16T20:51:33.526Z,101346.88
2022-09-16T20:54:12.893Z,101355.00
2022-09-16T20:56:42.208Z,101360.09
2022-09-16T20:59:10.664Z,101358.16
2022-09-16T21:01:38.822Z,101362.13
2022-09-16T21:04:07.921Z,101369.50
2022-09-16T21:06:36.104Z,101361.69
2022-09-16T21:09:06.306Z,101369.03
2022-09-16T21:11:33.490Z,101362.72
2022-09-16T21:14:03.089Z,101369.19
2022-09-16T21:16:34.824Z,101361.78
2022-09-16T21:19:03.945Z,101359.06
2022-09-16T21:21:31.589Z,101373.31
2022-09-16T21:24:00.382Z,101379.78
2022-09-16T21:26:29.598Z,101372.34
2022-09-16T21:29:01.136Z,101378.47
2022-09-16T21:31:29.977Z,101380.38
2022-09-16T21:33:58.060Z,101376.91
2022-09-16T21:36:25.523Z,101379.19
2022-09-16T21:38:52.257Z,101376.81
2022-09-16T21:41:23.999Z,101372.94
2022-09-16T21:43:55.382Z,101379.59
2022-09-16T21:46:28.116Z,101382.31
2022-09-16T21:49:08.443Z,101379.25
2022-09-16T21:51:38.217Z,101380.47
2022-09-16T21:54:07.123Z,101382.41
2022-09-16T21:56:37.085Z,101392.13
2022-09-16T21:59:03.507Z,101388.53
2022-09-16T22:01:31.447Z,101387.31
2022-09-16T22:04:00.503Z,101391.84
2022-09-16T22:06:27.989Z,101395.28
2022-09-16T22:08:56.188Z,101392.81
2022-09-16T22:11:31.343Z,101403.53
2022-09-16T22:14:00.500Z,101406.59
2022-09-16T22:16:29.804Z,101400.97
2022-09-16T22:19:01.885Z,101394.31
2022-09-16T22:21:30.985Z,101396.56
2022-09-16T22:23:59.252Z,101397.50
2022-09-16T22:26:26.732Z,101401.72
2022-09-16T22:28:53.661Z,101400.38
2022-09-16T22:31:22.882Z,101390.63
2022-09-16T22:33:51.465Z,101389.50
2022-09-16T22:36:20.506Z,101391.88
2022-09-16T22:38:48.439Z,101396.19
2022-09-16T22:41:16.346Z,101392.66
2022-09-16T22:43:44.702Z,101391.88
2022-09-16T22:46:20.023Z,101393.00
2022-09-16T22:48:47.464Z,101404.56
2022-09-16T22:51:16.127Z,101402.53
2022-09-16T22:53:43.818Z,101402.09
2022-09-16T22:56:12.866Z,101402.78
2022-09-16T22:58:39.520Z,101402.22
2022-09-16T23:01:18.344Z,101392.06
2022-09-16T23:03:46.412Z,101390.03
2022-09-16T23:06:15.013Z,101397.38
2022-09-16T23:08:43.408Z,101397.38
2022-09-16T23:11:13.184Z,101391.63
2022-09-16T23:13:44.526Z,101395.22
2022-09-16T23:16:17.796Z,101405.38
2022-09-16T23:18:53.591Z,101399.16
2022-09-16T23:21:22.118Z,101395.66
2022-09-16T23:23:50.893Z,101400.75
2022-09-16T23:26:24.039Z,101413.19
2022-09-16T23:28:52.728Z,101402.34
2022-09-16T23:31:22.025Z,101409.22
2022-09-16T23:33:48.641Z,101401.44
2022-09-16T23:36:16.641Z,101403.47
2022-09-16T23:38:43.904Z,101406.94
2022-09-16T23:41:13.413Z,101405.03
2022-09-16T23:43:41.593Z,101407.19
2022-09-16T23:46:09.553Z,101404.81
2022-09-16T23:48:36.177Z,101418.25
2022-09-16T23:51:02.940Z,101411.97
2022-09-16T23:53:29.600Z,101416.16
2022-09-16T23:55:56.029Z,101417.28
2022-09-16T23:58:22.821Z,101416.03
